sensor_id;sensor_type;location;lat;lon;timestamp;pressure;altitude;pressure_sealevel;temperature;humidity
48402;BME280;65988;52.422;16.746;2023-05-01T00:03:07;99889.72;;;18.97;33.19
48402;BME280;65988;52.422;16.746;2023-05-01T00:06:39;99879.91;;;19.12;33.16
48402;BME280;65988;52.422;16.746;2023-05-01T00:12:57;99874.16;;;19.20;32.86
48402;BME280;65988;52.422;16.746;2023-05-01T00:16:14;99859.72;;;18.63;33.58
48402;BME280;65988;52.422;16.746;2023-05-01T00:25:30;99958.19;;;19.56;33.34
48402;BME280;65988;52.422;16.746;2023-05-01T00:41:06;99965.78;;;19.47;33.27
48402;BME280;65988;52.422;16.746;2023-05-01T00:44:08;99857.81;;;19.17;32.91
48402;BME280;65988;52.422;16.746;2023-05-01T00:47:03;99891.69;;;19.57;32.62
48402;BME280;65988;52.422;16.746;2023-05-01T00:53:54;99943.38;;;19.67;32.47
48402;BME280;65988;52.422;16.746;2023-05-01T01:07:09;99955.84;;;19.90;32.34
48402;BME280;65988;52.422;16.746;2023-05-01T01:31:23;99851.47;;;18.95;33.17
48402;BME280;65988;52.422;16.746;2023-05-01T02:19:36;99876.56;;;18.06;34.44
48402;BME280;65988;52.422;16.746;2023-05-01T02:29:29;99843.75;;;19.18;32.73
48402;BME280;65988;52.422;16.746;2023-05-01T02:32:57;99867.88;;;19.23;32.64
48402;BME280;65988;52.422;16.746;2023-05-01T02:42:31;99838.66;;;19.03;33.08
48402;BME280;65988;52.422;16.746;2023-05-01T02:45:46;99902.59;;;18.88;33.58
48402;BME280;65988;52.422;16.746;2023-05-01T03:57:40;99577.72;;;17.76;33.50
48402;BME280;65988;52.422;16.746;2023-05-01T04:16:18;99865.16;;;18.86;33.50
48402;BME280;65988;52.422;16.746;2023-05-01T04:19:16;99803.38;;;18.57;33.58
48402;BME280;65988;52.422;16.746;2023-05-01T04:25:16;99843.56;;;18.56;33.71
48402;BME280;65988;52.422;16.746;2023-05-01T04:28:34;100124.50;;;20.42;33.01
48402;BME280;65988;52.422;16.746;2023-05-01T04:31:34;99963.09;;;20.34;32.23
48402;BME280;65988;52.422;16.746;2023-05-01T04:34:34;99849.59;;;19.34;32.64
48402;BME280;65988;52.422;16.746;2023-05-01T04:37:14;99883.50;;;19.24;33.25
48402;BME280;65988;52.422;16.746;2023-05-01T04:40:19;100000.06;;;20.07;32.56
48402;BME280;65988;52.422;16.746;2023-05-01T04:42:52;99968.69;;;20.06;32.75
48402;BME280;65988;52.422;16.746;2023-05-01T04:45:42;100011.16;;;20.72;32.00
48402;BME280;65988;52.422;16.746;2023-05-01T04:49:10;99942.28;;;20.56;31.89
48402;BME280;65988;52.422;16.746;2023-05-01T04:51:43;99837.44;;;19.94;32.43
48402;BME280;65988;52.422;16.746;2023-05-01T04:54:14;100057.91;;;20.06;33.80
48402;BME280;65988;52.422;16.746;2023-05-01T04:56:56;100158.75;;;20.40;34.02
48402;BME280;65988;52.422;16.746;2023-05-01T04:59:46;99834.91;;;19.93;33.22
48402;BME280;65988;52.422;16.746;2023-05-01T05:02:27;99785.75;;;19.59;33.83
48402;BME280;65988;52.422;16.746;2023-05-01T05:05:06;99971.13;;;20.20;33.76
48402;BME280;65988;52.422;16.746;2023-05-01T05:07:49;100014.91;;;19.95;34.10
48402;BME280;65988;52.422;16.746;2023-05-01T05:10:29;100235.53;;;20.94;34.68
48402;BME280;65988;52.422;16.746;2023-05-01T05:12:55;99868.03;;;19.70;34.72
48402;BME280;65988;52.422;16.746;2023-05-01T05:15:23;99890.44;;;19.49;34.98
48402;BME280;65988;52.422;16.746;2023-05-01T05:17:48;99882.38;;;19.90;35.13
48402;BME280;65988;52.422;16.746;2023-05-01T05:20:14;99927.13;;;20.24;34.43
48402;BME280;65988;52.422;16.746;2023-05-01T05:22:42;99868.19;;;19.92;34.86
48402;BME280;65988;52.422;16.746;2023-05-01T05:25:08;100022.50;;;20.35;35.00
48402;BME280;65988;52.422;16.746;2023-05-01T05:27:37;100296.69;;;22.17;34.31
48402;BME280;65988;52.422;16.746;2023-05-01T05:30:19;100154.88;;;20.70;35.09
48402;BME280;65988;52.422;16.746;2023-05-01T05:33:06;100318.81;;;21.79;35.22
48402;BME280;65988;52.422;16.746;2023-05-01T05:35:45;99889.63;;;19.49;35.78
48402;BME280;65988;52.422;16.746;2023-05-01T05:38:14;100234.09;;;21.38;35.49
48402;BME280;65988;52.422;16.746;2023-05-01T05:40:42;99985.19;;;21.03;35.63
48402;BME280;65988;52.422;16.746;2023-05-01T05:43:11;100104.44;;;20.65;35.66
48402;BME280;65988;52.422;16.746;2023-05-01T05:45:41;100275.19;;;22.34;34.71
48402;BME280;65988;52.422;16.746;2023-05-01T05:48:07;99881.50;;;20.96;34.44
48402;BME280;65988;52.422;16.746;2023-05-01T05:50:40;100217.81;;;22.15;34.46
48402;BME280;65988;52.422;16.746;2023-05-01T05:53:19;100297.59;;;22.85;34.59
48402;BME280;65988;52.422;16.746;2023-05-01T05:55:59;100148.59;;;21.68;34.33
48402;BME280;65988;52.422;16.746;2023-05-01T05:58:24;99881.94;;;20.31;35.02
48402;BME280;65988;52.422;16.746;2023-05-01T06:00:50;99990.84;;;21.21;34.04
48402;BME280;65988;52.422;16.746;2023-05-01T06:03:17;100044.31;;;22.01;33.50
48402;BME280;65988;52.422;16.746;2023-05-01T06:05:48;100181.59;;;22.85;33.76
48402;BME280;65988;52.422;16.746;2023-05-01T06:08:19;100111.78;;;22.36;34.33
48402;BME280;65988;52.422;16.746;2023-05-01T06:10:52;100238.44;;;23.54;33.43
48402;BME280;65988;52.422;16.746;2023-05-01T06:13:25;99921.84;;;22.50;33.14
48402;BME280;65988;52.422;16.746;2023-05-01T06:15:51;99787.69;;;21.19;33.94
48402;BME280;65988;52.422;16.746;2023-05-01T06:18:31;100304.22;;;24.21;33.21
48402;BME280;65988;52.422;16.746;2023-05-01T06:21:09;100369.28;;;24.01;33.88
48402;BME280;65988;52.422;16.746;2023-05-01T06:23:57;99971.56;;;23.07;32.02
48402;BME280;65988;52.422;16.746;2023-05-01T06:26:25;100191.66;;;23.99;32.23
48402;BME280;65988;52.422;16.746;2023-05-01T06:28:57;99760.44;;;23.30;31.23
48402;BME280;65988;52.422;16.746;2023-05-01T06:31:33;99981.88;;;23.82;31.33
48402;BME280;65988;52.422;16.746;2023-05-01T06:34:12;99983.59;;;23.52;31.39
48402;BME280;65988;52.422;16.746;2023-05-01T06:36:43;99746.00;;;23.73;30.53
48402;BME280;65988;52.422;16.746;2023-05-01T06:39:08;99742.53;;;23.43;30.57
48402;BME280;65988;52.422;16.746;2023-05-01T06:41:33;99651.97;;;22.84;30.40
48402;BME280;65988;52.422;16.746;2023-05-01T06:44:02;99925.13;;;24.07;30.95
48402;BME280;65988;52.422;16.746;2023-05-01T06:46:28;99906.78;;;24.15;31.38
48402;BME280;65988;52.422;16.746;2023-05-01T06:48:53;99578.31;;;22.63;30.08
48402;BME280;65988;52.422;16.746;2023-05-01T06:51:18;99911.06;;;24.55;30.54
48402;BME280;65988;52.422;16.746;2023-05-01T06:53:44;99803.78;;;24.15;29.63
48402;BME280;65988;52.422;16.746;2023-05-01T06:56:09;99813.44;;;24.34;30.16
48402;BME280;65988;52.422;16.746;2023-05-01T06:58:35;99816.78;;;24.93;28.87
48402;BME280;65988;52.422;16.746;2023-05-01T07:01:00;99690.88;;;24.55;28.66
48402;BME280;65988;52.422;16.746;2023-05-01T07:03:25;99743.44;;;24.20;29.54
48402;BME280;65988;52.422;16.746;2023-05-01T07:05:54;99705.00;;;23.00;30.01
48402;BME280;65988;52.422;16.746;2023-05-01T07:08:20;99775.44;;;24.92;29.39
48402;BME280;65988;52.422;16.746;2023-05-01T07:10:45;99583.97;;;23.94;28.45
48402;BME280;65988;52.422;16.746;2023-05-01T07:13:11;99713.94;;;23.58;29.76
48402;BME280;65988;52.422;16.746;2023-05-01T07:15:36;99341.78;;;21.78;29.64
48402;BME280;65988;52.422;16.746;2023-05-01T07:18:02;100074.50;;;24.89;30.19
48402;BME280;65988;52.422;16.746;2023-05-01T07:20:30;99833.50;;;24.17;30.05
48402;BME280;65988;52.422;16.746;2023-05-01T07:22:56;100002.75;;;25.69;29.03
48402;BME280;65988;52.422;16.746;2023-05-01T07:25:21;99716.16;;;24.67;28.41
48402;BME280;65988;52.422;16.746;2023-05-01T07:27:46;99924.59;;;25.00;30.07
48402;BME280;65988;52.422;16.746;2023-05-01T07:30:12;99920.00;;;26.57;28.28
48402;BME280;65988;52.422;16.746;2023-05-01T07:32:37;99728.97;;;25.36;28.37
48402;BME280;65988;52.422;16.746;2023-05-01T07:35:02;99840.06;;;25.64;28.47
48402;BME280;65988;52.422;16.746;2023-05-01T07:37:28;99828.09;;;25.95;28.66
48402;BME280;65988;52.422;16.746;2023-05-01T07:39:53;99951.03;;;26.65;29.12
48402;BME280;65988;52.422;16.746;2023-05-01T07:42:19;100036.69;;;26.11;29.79
48402;BME280;65988;52.422;16.746;2023-05-01T07:44:49;100040.34;;;26.28;28.95
48402;BME280;65988;52.422;16.746;2023-05-01T07:47:14;99989.25;;;26.18;29.54
48402;BME280;65988;52.422;16.746;2023-05-01T07:49:40;99980.97;;;27.62;28.12
48402;BME280;65988;52.422;16.746;2023-05-01T07:52:05;99790.84;;;25.97;27.89
48402;BME280;65988;52.422;16.746;2023-05-01T07:54:32;100398.25;;;29.00;28.86
48402;BME280;65988;52.422;16.746;2023-05-01T07:57:04;100114.75;;;27.70;27.91
48402;BME280;65988;52.422;16.746;2023-05-01T07:59:35;100155.28;;;28.41;27.52
48402;BME280;65988;52.422;16.746;2023-05-01T08:02:00;99914.25;;;26.44;28.89
48402;BME280;65988;52.422;16.746;2023-05-01T08:04:27;99618.97;;;24.79;28.35
48402;BME280;65988;52.422;16.746;2023-05-01T08:06:53;99869.53;;;27.36;27.91
48402;BME280;65988;52.422;16.746;2023-05-01T08:09:18;99950.16;;;27.86;27.53
48402;BME280;65988;52.422;16.746;2023-05-01T08:11:44;99728.19;;;27.34;27.00
48402;BME280;65988;52.422;16.746;2023-05-01T08:14:11;99804.44;;;26.46;28.18
48402;BME280;65988;52.422;16.746;2023-05-01T08:16:36;99724.63;;;26.50;28.05
48402;BME280;65988;52.422;16.746;2023-05-01T08:19:02;99974.47;;;26.52;29.39
48402;BME280;65988;52.422;16.746;2023-05-01T08:21:33;100151.06;;;28.22;27.87
48402;BME280;65988;52.422;16.746;2023-05-01T08:23:58;99845.06;;;27.75;27.61
48402;BME280;65988;52.422;16.746;2023-05-01T08:26:24;99899.94;;;27.50;27.10
48402;BME280;65988;52.422;16.746;2023-05-01T08:28:49;100057.66;;;29.73;26.97
48402;BME280;65988;52.422;16.746;2023-05-01T08:31:15;99749.91;;;30.15;23.94
48402;BME280;65988;52.422;16.746;2023-05-01T08:33:40;99748.28;;;28.11;26.48
48402;BME280;65988;52.422;16.746;2023-05-01T08:36:08;100023.03;;;29.00;26.58
48402;BME280;65988;52.422;16.746;2023-05-01T08:38:34;99791.97;;;28.81;25.04
48402;BME280;65988;52.422;16.746;2023-05-01T08:41:00;100025.94;;;29.95;25.68
48402;BME280;65988;52.422;16.746;2023-05-01T08:43:29;100206.34;;;30.34;26.54
48402;BME280;65988;52.422;16.746;2023-05-01T08:45:57;99952.81;;;29.97;24.95
48402;BME280;65988;52.422;16.746;2023-05-01T08:48:24;99748.94;;;28.69;24.61
48402;BME280;65988;52.422;16.746;2023-05-01T08:50:54;99980.03;;;29.76;25.02
48402;BME280;65988;52.422;16.746;2023-05-01T08:53:24;100285.94;;;31.48;26.16
48402;BME280;65988;52.422;16.746;2023-05-01T08:55:52;99892.06;;;31.65;23.14
48402;BME280;65988;52.422;16.746;2023-05-01T08:58:27;99940.66;;;31.76;23.47
48402;BME280;65988;52.422;16.746;2023-05-01T09:00:56;99905.47;;;30.61;24.73
48402;BME280;65988;52.422;16.746;2023-05-01T09:03:22;99911.38;;;31.31;23.99
48402;BME280;65988;52.422;16.746;2023-05-01T09:05:48;99859.75;;;33.02;22.41
48402;BME280;65988;52.422;16.746;2023-05-01T09:08:14;99567.72;;;30.60;22.88
48402;BME280;65988;52.422;16.746;2023-05-01T09:10:44;100126.19;;;34.18;22.71
48402;BME280;65988;52.422;16.746;2023-05-01T09:13:12;99879.59;;;32.16;23.40
48402;BME280;65988;52.422;16.746;2023-05-01T09:15:38;99849.41;;;32.92;23.12
48402;BME280;65988;52.422;16.746;2023-05-01T09:18:03;99805.84;;;32.00;23.65
48402;BME280;65988;52.422;16.746;2023-05-01T09:20:30;99587.78;;;29.44;23.95
48402;BME280;65988;52.422;16.746;2023-05-01T09:22:55;99749.94;;;31.77;23.12
48402;BME280;65988;52.422;16.746;2023-05-01T09:25:21;99846.94;;;32.55;23.04
48402;BME280;65988;52.422;16.746;2023-05-01T09:27:47;100130.06;;;33.10;24.27
48402;BME280;65988;52.422;16.746;2023-05-01T09:33:09;100163.69;;;34.04;23.83
48402;BME280;65988;52.422;16.746;2023-05-01T09:35:51;100081.97;;;34.89;22.60
48402;BME280;65988;52.422;16.746;2023-05-01T09:38:22;100097.69;;;36.68;20.84
48402;BME280;65988;52.422;16.746;2023-05-01T09:40:48;99588.00;;;32.37;22.29
48402;BME280;65988;52.422;16.746;2023-05-01T09:43:23;99918.00;;;34.50;21.84
48402;BME280;65988;52.422;16.746;2023-05-01T09:57:35;99779.19;;;31.42;24.56
48402;BME280;65988;52.422;16.746;2023-05-01T10:00:21;99669.31;;;30.80;23.45
48402;BME280;65988;52.422;16.746;2023-05-01T10:03:01;99858.84;;;32.18;23.69
48402;BME280;65988;52.422;16.746;2023-05-01T10:06:07;99609.66;;;29.99;24.31
48402;BME280;65988;52.422;16.746;2023-05-01T10:09:25;99831.25;;;32.81;22.59
48402;BME280;65988;52.422;16.746;2023-05-01T10:18:44;99587.44;;;29.92;24.76
48402;BME280;65988;52.422;16.746;2023-05-01T10:48:59;99609.56;;;32.22;22.42
48402;BME280;65988;52.422;16.746;2023-05-01T10:54:55;99822.22;;;33.43;22.86
48402;BME280;65988;52.422;16.746;2023-05-01T11:34:43;99634.66;;;32.83;22.69
48402;BME280;65988;52.422;16.746;2023-05-01T11:40:36;99583.44;;;31.76;23.89
48402;BME280;65988;52.422;16.746;2023-05-01T11:55:52;99767.72;;;33.03;23.20
48402;BME280;65988;52.422;16.746;2023-05-01T12:02:02;99427.22;;;30.95;23.53
48402;BME280;65988;52.422;16.746;2023-05-01T12:05:13;99588.94;;;32.10;22.99
48402;BME280;65988;52.422;16.746;2023-05-01T12:07:50;99307.53;;;29.21;25.10
48402;BME280;65988;52.422;16.746;2023-05-01T12:14:13;99645.25;;;32.01;24.15
48402;BME280;65988;52.422;16.746;2023-05-01T12:31:53;99718.19;;;31.95;24.95
48402;BME280;65988;52.422;16.746;2023-05-01T14:07:57;99445.44;;;31.13;24.57
48402;BME280;65988;52.422;16.746;2023-05-01T14:13:54;99234.34;;;29.96;24.54
48402;BME280;65988;52.422;16.746;2023-05-01T14:34:26;99018.00;;;27.93;25.75
48402;BME280;65988;52.422;16.746;2023-05-01T14:37:08;99588.06;;;31.04;25.68
48402;BME280;65988;52.422;16.746;2023-05-01T14:39:37;99397.66;;;30.40;25.36
48402;BME280;65988;52.422;16.746;2023-05-01T14:48:58;99470.56;;;31.67;24.86
48402;BME280;65988;52.422;16.746;2023-05-01T14:51:25;99521.16;;;31.40;25.54
48402;BME280;65988;52.422;16.746;2023-05-01T14:54:09;99338.88;;;30.77;24.93
48402;BME280;65988;52.422;16.746;2023-05-01T14:56:54;99146.00;;;28.99;25.20
48402;BME280;65988;52.422;16.746;2023-05-01T14:59:29;99064.28;;;29.15;24.43
48402;BME280;65988;52.422;16.746;2023-05-01T15:02:10;99072.75;;;29.47;24.53
48402;BME280;65988;52.422;16.746;2023-05-01T15:04:36;99182.56;;;28.91;25.77
48402;BME280;65988;52.422;16.746;2023-05-01T15:07:08;99055.75;;;28.98;24.69
48402;BME280;65988;52.422;16.746;2023-05-01T15:09:34;99002.72;;;27.80;26.01
48402;BME280;65988;52.422;16.746;2023-05-01T15:12:23;99424.09;;;29.77;26.38
48402;BME280;65988;52.422;16.746;2023-05-01T15:14:54;99117.38;;;29.01;25.63
48402;BME280;65988;52.422;16.746;2023-05-01T15:17:32;99207.53;;;29.55;24.96
48402;BME280;65988;52.422;16.746;2023-05-01T15:22:49;99176.22;;;29.28;25.34
48402;BME280;65988;52.422;16.746;2023-05-01T15:25:22;99274.00;;;29.63;25.27
48402;BME280;65988;52.422;16.746;2023-05-01T15:31:44;99181.44;;;30.28;25.01
48402;BME280;65988;52.422;16.746;2023-05-01T15:40:44;99036.72;;;28.58;25.25
48402;BME280;65988;52.422;16.746;2023-05-01T15:43:16;99441.16;;;30.41;26.16
48402;BME280;65988;52.422;16.746;2023-05-01T15:45:42;98942.00;;;28.72;25.05
48402;BME280;65988;52.422;16.746;2023-05-01T15:48:10;98973.50;;;28.10;25.38
48402;BME280;65988;52.422;16.746;2023-05-01T15:50:41;99300.19;;;29.81;25.01
48402;BME280;65988;52.422;16.746;2023-05-01T15:53:07;99239.53;;;29.18;26.48
48402;BME280;65988;52.422;16.746;2023-05-01T16:03:38;99008.53;;;29.28;23.82
48402;BME280;65988;52.422;16.746;2023-05-01T16:06:08;98828.69;;;28.21;24.28
48402;BME280;65988;52.422;16.746;2023-05-01T16:08:46;99149.72;;;29.98;24.07
48402;BME280;65988;52.422;16.746;2023-05-01T16:11:32;99186.91;;;29.85;24.98
48402;BME280;65988;52.422;16.746;2023-05-01T16:14:00;99225.56;;;29.52;25.04
48402;BME280;65988;52.422;16.746;2023-05-01T16:16:37;99145.34;;;29.91;23.83
48402;BME280;65988;52.422;16.746;2023-05-01T16:19:14;99240.56;;;29.82;24.79
48402;BME280;65988;52.422;16.746;2023-05-01T16:26:00;99129.28;;;29.06;25.17
48402;BME280;65988;52.422;16.746;2023-05-01T16:29:22;99335.00;;;29.79;25.46
48402;BME280;65988;52.422;16.746;2023-05-01T16:31:53;99038.03;;;28.25;25.50
48402;BME280;65988;52.422;16.746;2023-05-01T16:34:23;99182.38;;;29.14;25.00
48402;BME280;65988;52.422;16.746;2023-05-01T16:37:23;99103.47;;;29.49;23.97
48402;BME280;65988;52.422;16.746;2023-05-01T16:39:56;99038.38;;;28.59;24.49
48402;BME280;65988;52.422;16.746;2023-05-01T16:42:25;98969.81;;;27.59;25.19
48402;BME280;65988;52.422;16.746;2023-05-01T18:13:33;99318.56;;;29.54;27.50
48402;BME280;65988;52.422;16.746;2023-05-01T18:16:16;99317.09;;;29.51;27.08
48402;BME280;65988;52.422;16.746;2023-05-01T18:22:42;99290.06;;;29.48;26.64
48402;BME280;65988;52.422;16.746;2023-05-01T18:25:39;99369.75;;;29.19;27.98
48402;BME280;65988;52.422;16.746;2023-05-01T18:28:52;99361.84;;;29.78;26.99
48402;BME280;65988;52.422;16.746;2023-05-01T18:31:40;99272.22;;;29.48;26.80
48402;BME280;65988;52.422;16.746;2023-05-01T18:37:51;99256.88;;;29.14;26.93
48402;BME280;65988;52.422;16.746;2023-05-01T18:40:41;99274.09;;;28.96;26.85
48402;BME280;65988;52.422;16.746;2023-05-01T18:46:22;99223.75;;;28.95;26.94
48402;BME280;65988;52.422;16.746;2023-05-01T18:49:12;99254.03;;;28.64;27.13
48402;BME280;65988;52.422;16.746;2023-05-01T18:52:09;99237.31;;;28.55;27.07
48402;BME280;65988;52.422;16.746;2023-05-01T18:55:06;99290.06;;;28.51;27.62
48402;BME280;65988;52.422;16.746;2023-05-01T18:58:04;99142.03;;;28.22;26.77
48402;BME280;65988;52.422;16.746;2023-05-01T19:01:03;99321.13;;;28.51;27.40
48402;BME280;65988;52.422;16.746;2023-05-01T19:03:44;99279.31;;;27.92;27.97
48402;BME280;65988;52.422;16.746;2023-05-01T19:06:35;99139.88;;;27.73;27.30
48402;BME280;65988;52.422;16.746;2023-05-01T19:09:11;99203.16;;;27.46;27.86
48402;BME280;65988;52.422;16.746;2023-05-01T19:12:11;99307.69;;;27.91;27.96
48402;BME280;65988;52.422;16.746;2023-05-01T19:14:58;99299.91;;;28.13;28.05
48402;BME280;65988;52.422;16.746;2023-05-01T19:17:48;99161.06;;;27.96;27.01
48402;BME280;65988;52.422;16.746;2023-05-01T19:20:47;99197.50;;;27.87;27.82
48402;BME280;65988;52.422;16.746;2023-05-01T19:27:17;99198.38;;;28.03;26.88
48402;BME280;65988;52.422;16.746;2023-05-01T19:29:55;99149.06;;;27.24;28.33
48402;BME280;65988;52.422;16.746;2023-05-01T19:35:22;99139.28;;;27.86;26.74
48402;BME280;65988;52.422;16.746;2023-05-01T19:38:29;99167.28;;;27.73;26.87
48402;BME280;65988;52.422;16.746;2023-05-01T19:44:08;99210.94;;;27.71;27.22
48402;BME280;65988;52.422;16.746;2023-05-01T19:47:14;99274.97;;;27.91;28.09
48402;BME280;65988;52.422;16.746;2023-05-01T19:53:35;99227.06;;;27.84;27.49
48402;BME280;65988;52.422;16.746;2023-05-01T19:56:34;99273.41;;;27.81;28.11
48402;BME280;65988;52.422;16.746;2023-05-01T20:07:34;99253.81;;;27.82;27.70
48402;BME280;65988;52.422;16.746;2023-05-01T20:10:18;99103.97;;;27.24;27.02
48402;BME280;65988;52.422;16.746;2023-05-01T20:12:57;98884.72;;;25.93;27.24
48402;BME280;65988;52.422;16.746;2023-05-01T20:19:03;99106.78;;;26.53;27.86
48402;BME280;65988;52.422;16.746;2023-05-01T20:24:53;99182.28;;;27.81;26.90
48402;BME280;65988;52.422;16.746;2023-05-01T20:27:50;99144.78;;;27.46;27.00
48402;BME280;65988;52.422;16.746;2023-05-01T20:30:47;99161.59;;;27.76;26.84
48402;BME280;65988;52.422;16.746;2023-05-01T20:33:57;99186.19;;;27.70;27.46
48402;BME280;65988;52.422;16.746;2023-05-01T20:37:05;99332.41;;;27.92;28.19
48402;BME280;65988;52.422;16.746;2023-05-01T20:43:12;99243.97;;;27.45;28.45
48402;BME280;65988;52.422;16.746;2023-05-01T20:45:56;99443.31;;;27.58;30.15
48402;BME280;65988;52.422;16.746;2023-05-01T20:51:50;99279.19;;;27.39;29.30
48402;BME280;65988;52.422;16.746;2023-05-01T20:54:55;99421.50;;;27.40;30.48
48402;BME280;65988;52.422;16.746;2023-05-01T20:57:51;99304.19;;;27.13;29.85
48402;BME280;65988;52.422;16.746;2023-05-01T21:01:38;99431.69;;;27.68;30.03
48402;BME280;65988;52.422;16.746;2023-05-01T21:11:04;99409.19;;;27.78;30.56
48402;BME280;65988;52.422;16.746;2023-05-01T21:14:21;99393.59;;;27.52;30.24
48402;BME280;65988;52.422;16.746;2023-05-01T21:24:24;99199.38;;;27.17;29.04
48402;BME280;65988;52.422;16.746;2023-05-01T21:40:51;99281.25;;;26.16;31.31
48402;BME280;65988;52.422;16.746;2023-05-01T22:07:10;99431.78;;;25.01;34.28
48402;BME280;65988;52.422;16.746;2023-05-01T22:10:06;99502.53;;;24.45;35.68
48402;BME280;65988;52.422;16.746;2023-05-01T22:12:51;99480.19;;;25.27;34.38
48402;BME280;65988;52.422;16.746;2023-05-01T22:15:40;99491.19;;;24.88;35.54
48402;BME280;65988;52.422;16.746;2023-05-01T22:21:56;99349.81;;;25.35;33.97
48402;BME280;65988;52.422;16.746;2023-05-01T22:27:27;99101.47;;;24.48;32.65
48402;BME280;65988;52.422;16.746;2023-05-01T22:33:36;99268.41;;;25.29;32.34
48402;BME280;65988;52.422;16.746;2023-05-01T22:46:31;99310.72;;;24.78;33.01
48402;BME280;65988;52.422;16.746;2023-05-01T22:49:49;99323.28;;;24.84;33.40
48402;BME280;65988;52.422;16.746;2023-05-01T22:56:46;99290.56;;;25.20;32.31
48402;BME280;65988;52.422;16.746;2023-05-01T23:06:37;99251.00;;;25.18;32.19
48402;BME280;65988;52.422;16.746;2023-05-01T23:24:33;99371.97;;;24.11;34.68
48402;BME280;65988;52.422;16.746;2023-05-01T23:27:29;99324.56;;;24.28;34.26
48402;BME280;65988;52.422;16.746;2023-05-01T23:30:40;99235.09;;;23.80;34.23
48402;BME280;65988;52.422;16.746;2023-05-01T23:37:42;99364.38;;;23.62;35.45
48402;BME280;65988;52.422;16.746;2023-05-01T23:43:43;99400.09;;;23.56;35.49
